createdAt,value
2023-04-23T00:00:01.572Z,170.7
2023-04-23T00:05:01.152Z,164.3
2023-04-23T00:10:00.757Z,158.3
2023-04-23T00:15:00.710Z,158.4
2023-04-23T00:20:00.713Z,166.4
2023-04-23T00:25:00.749Z,171.1
2023-04-23T00:30:00.738Z,162.3
2023-04-23T00:35:00.829Z,168.6
2023-04-23T00:40:00.713Z,175.3
2023-04-23T00:45:00.730Z,166.7
2023-04-23T00:50:00.810Z,169.0
2023-04-23T00:55:00.733Z,165.8
2023-04-23T01:00:00.684Z,177.4
2023-04-23T01:05:00.761Z,163.2
2023-04-23T01:10:00.776Z,185.7
2023-04-23T01:15:00.704Z,177.7
2023-04-23T01:20:00.741Z,183.7
2023-04-23T01:25:00.736Z,176.8
2023-04-23T01:30:00.761Z,173.4
2023-04-23T01:35:00.780Z,177.3
2023-04-23T01:40:00.740Z,183.8
2023-04-23T01:45:00.918Z,178.6
2023-04-23T01:50:00.720Z,186.4
2023-04-23T01:55:00.726Z,183.2
2023-04-23T02:00:00.677Z,185.3
2023-04-23T02:05:00.760Z,182.4
2023-04-23T02:10:00.919Z,174.6
2023-04-23T02:15:00.712Z,180.6
2023-04-23T02:20:00.795Z,181.0
2023-04-23T02:25:00.748Z,188.2
2023-04-23T02:30:00.686Z,184.5
2023-04-23T02:35:00.723Z,187.2
2023-04-23T02:40:00.755Z,187.8
2023-04-23T02:45:00.691Z,182.6
2023-04-23T02:50:00.733Z,188.6
2023-04-23T02:55:00.785Z,182.7
2023-04-23T03:00:00.713Z,176.1
2023-04-23T03:05:00.740Z,171.3
2023-04-23T03:10:00.770Z,174.8
2023-04-23T03:15:00.719Z,170.4
2023-04-23T03:20:00.773Z,185.8
2023-04-23T03:25:00.751Z,188.9
2023-04-23T03:30:00.709Z,189.8
2023-04-23T03:35:00.769Z,190.3
2023-04-23T03:40:00.770Z,185.7
2023-04-23T03:45:00.823Z,200.0
2023-04-23T03:50:00.713Z,191.8
2023-04-23T03:55:00.760Z,202.0
2023-04-23T04:00:00.804Z,191.7
2023-04-23T04:05:01.855Z,180.3
2023-04-23T04:10:00.710Z,165.1
2023-04-23T04:15:00.742Z,168.9
2023-04-23T04:20:00.748Z,177.4
2023-04-23T04:25:00.742Z,177.8
2023-04-23T04:30:00.747Z,183.1
2023-04-23T04:35:00.748Z,185.0
2023-04-23T04:40:00.818Z,183.8
2023-04-23T04:45:00.722Z,183.4
2023-04-23T04:50:00.724Z,199.3
2023-04-23T04:55:00.733Z,198.1
2023-04-23T05:00:00.728Z,196.0
2023-04-23T05:05:00.764Z,200.2
2023-04-23T05:10:00.732Z,195.2
2023-04-23T05:15:00.733Z,204.5
2023-04-23T05:20:00.714Z,212.4
2023-04-23T05:25:00.749Z,211.3
2023-04-23T05:30:00.727Z,211.2
2023-04-23T05:35:00.728Z,246.3
2023-04-23T05:40:00.723Z,199.3
2023-04-23T05:45:00.748Z,204.8
2023-04-23T05:50:00.718Z,204.0
2023-04-23T05:55:00.734Z,209.4
2023-04-23T06:00:00.700Z,198.5
2023-04-23T06:05:02.155Z,199.0
2023-04-23T06:10:00.753Z,191.6
2023-04-23T06:15:00.816Z,198.5
2023-04-23T06:20:00.786Z,197.2
2023-04-23T06:25:00.732Z,197.2
2023-04-23T06:30:00.738Z,191.6
2023-04-23T06:35:03.069Z,195.8
2023-04-23T06:40:00.922Z,175.9
2023-04-23T06:45:00.730Z,198.7
2023-04-23T06:50:00.724Z,193.8
2023-04-23T06:55:00.712Z,202.4
2023-04-23T07:00:00.789Z,208.9
2023-04-23T07:05:00.754Z,183.6
2023-04-23T07:10:00.768Z,190.2
2023-04-23T07:15:01.052Z,201.4
2023-04-23T07:20:00.894Z,195.6
2023-04-23T07:25:00.779Z,199.1
2023-04-23T07:30:00.746Z,191.3
2023-04-23T07:35:00.734Z,182.1
2023-04-23T07:40:00.733Z,200.6
2023-04-23T07:45:01.109Z,204.8
2023-04-23T07:50:00.958Z,200.1
2023-04-23T07:55:00.744Z,207.6
2023-04-23T08:00:00.761Z,202.9
2023-04-23T08:05:01.561Z,204.6
2023-04-23T08:10:00.757Z,182.3
2023-04-23T08:15:00.807Z,213.9
2023-04-23T08:20:00.877Z,198.9
2023-04-23T08:25:00.739Z,207.0
2023-04-23T08:30:00.785Z,198.9
2023-04-23T08:35:00.761Z,205.2
2023-04-23T08:40:00.904Z,196.7
2023-04-23T08:45:00.762Z,225.7
2023-04-23T08:50:00.752Z,233.4
2023-04-23T08:55:00.723Z,246.4
2023-04-23T09:00:00.760Z,244.0
2023-04-23T09:05:00.756Z,259.1
2023-04-23T09:10:00.728Z,234.8
2023-04-23T09:15:00.790Z,243.7
2023-04-23T09:20:00.718Z,252.6
2023-04-23T09:25:00.734Z,244.0
2023-04-23T09:30:00.778Z,242.9
2023-04-23T09:35:00.746Z,206.5
2023-04-23T09:40:00.768Z,219.2
2023-04-23T09:45:00.725Z,233.2
2023-04-23T09:50:00.771Z,241.8
2023-04-23T09:55:00.730Z,220.2
2023-04-23T10:00:15.682Z,197.4
2023-04-23T10:05:25.773Z,210.2
2023-04-23T10:10:00.752Z,209.0
2023-04-23T10:15:00.785Z,213.5
2023-04-23T10:20:00.691Z,213.4
2023-04-23T10:25:00.763Z,196.8
2023-04-23T10:30:00.730Z,207.7
2023-04-23T10:35:00.751Z,200.6
2023-04-23T10:40:01.923Z,199.5
2023-04-23T10:45:25.789Z,201.3
2023-04-23T10:50:00.717Z,223.2
2023-04-23T10:55:01.032Z,236.0
2023-04-23T11:00:00.753Z,211.3
2023-04-23T11:05:01.583Z,234.6
2023-04-23T11:10:00.829Z,236.1
2023-04-23T11:15:00.929Z,218.0
2023-04-23T11:20:00.734Z,250.1
2023-04-23T11:25:00.992Z,274.7
2023-04-23T11:30:00.815Z,271.2
2023-04-23T11:35:00.782Z,274.0
2023-04-23T11:40:00.732Z,281.7
2023-04-23T11:45:00.786Z,284.0
2023-04-23T11:50:00.806Z,273.9
2023-04-23T11:55:00.765Z,282.0
2023-04-23T12:00:00.793Z,284.9
2023-04-23T12:05:00.856Z,286.3
2023-04-23T12:10:00.724Z,238.5
2023-04-23T12:15:00.778Z,268.9
2023-04-23T12:20:00.862Z,263.0
2023-04-23T12:25:00.753Z,195.9
2023-04-23T12:30:00.855Z,247.0
2023-04-23T12:35:00.808Z,258.3
2023-04-23T12:40:00.783Z,263.3
2023-04-23T12:45:00.933Z,215.0
2023-04-23T12:50:00.764Z,266.9
2023-04-23T12:55:00.890Z,263.3
2023-04-23T13:00:00.780Z,197.2
2023-04-23T13:05:01.654Z,289.1
2023-04-23T13:10:00.778Z,210.1
2023-04-23T13:15:00.846Z,247.9
2023-04-23T13:20:00.722Z,233.4
2023-04-23T13:25:00.905Z,223.9
2023-04-23T13:30:00.758Z,222.3
2023-04-23T13:35:00.759Z,244.6
2023-04-23T13:40:00.956Z,231.7
2023-04-23T13:45:00.867Z,216.4
2023-04-23T13:50:00.811Z,261.4
2023-04-23T13:55:00.794Z,264.6
2023-04-23T14:00:00.888Z,197.5
2023-04-23T14:05:00.741Z,259.8
2023-04-23T14:10:00.945Z,248.0
2023-04-23T14:15:00.794Z,248.6
2023-04-23T14:20:00.786Z,250.4
2023-04-23T14:25:00.770Z,245.6
2023-04-23T14:30:00.730Z,235.8
2023-04-23T14:35:00.753Z,241.4
2023-04-23T14:40:00.774Z,252.2
2023-04-23T14:45:00.772Z,239.2
2023-04-23T14:50:01.030Z,214.3
2023-04-23T14:55:00.740Z,246.5
2023-04-23T15:00:00.737Z,261.2
2023-04-23T15:05:00.927Z,244.7
2023-04-23T15:10:00.765Z,227.7
2023-04-23T15:15:00.712Z,237.4
2023-04-23T15:20:00.815Z,291.9
2023-04-23T15:25:00.740Z,293.5
2023-04-23T15:30:01.018Z,246.1
2023-04-23T15:35:01.006Z,331.3
2023-04-23T15:40:01.056Z,201.9
2023-04-23T15:45:00.777Z,197.3
2023-04-23T15:50:00.836Z,202.0
2023-04-23T15:55:00.743Z,246.8
2023-04-23T16:00:00.970Z,216.5
2023-04-23T16:05:02.958Z,251.3
2023-04-23T16:10:00.741Z,205.2
2023-04-23T16:15:00.819Z,179.0
2023-04-23T16:20:00.819Z,179.1
2023-04-23T16:25:00.753Z,198.6
2023-04-23T16:30:00.747Z,181.4
2023-04-23T16:35:00.830Z,126.9
2023-04-23T16:40:00.727Z,177.2
2023-04-23T16:45:00.860Z,186.6
2023-04-23T16:50:00.914Z,167.8
2023-04-23T16:55:02.500Z,146.5
2023-04-23T17:00:00.799Z,175.5
2023-04-23T17:05:00.736Z,77.1
2023-04-23T17:10:00.813Z,118.5
2023-04-23T17:15:00.785Z,150.6
2023-04-23T17:20:00.824Z,157.5
2023-04-23T17:25:01.266Z,198.8
2023-04-23T17:30:00.799Z,158.9
2023-04-23T17:35:11.367Z,161.6
2023-04-23T17:40:00.817Z,173.5
2023-04-23T17:45:00.758Z,168.4
2023-04-23T17:50:00.785Z,170.5
2023-04-23T17:55:00.805Z,120.3
2023-04-23T18:00:00.818Z,69.3
2023-04-23T18:05:00.950Z,79.3
2023-04-23T18:10:00.860Z,67.2
2023-04-23T18:15:00.830Z,70.3
2023-04-23T18:20:00.752Z,98.7
2023-04-23T18:25:00.797Z,157.0
2023-04-23T18:30:00.831Z,70.9
2023-04-23T18:35:00.818Z,89.7
2023-04-23T18:40:00.893Z,90.0
2023-04-23T18:45:00.825Z,90.0
2023-04-23T18:50:00.738Z,90.0
2023-04-23T18:55:00.753Z,45.7
2023-04-23T19:00:00.753Z,45.0
2023-04-23T19:05:00.896Z,64.2
2023-04-23T19:10:00.724Z,68.1
2023-04-23T19:15:00.806Z,67.5
2023-04-23T19:20:00.762Z,67.5
2023-04-23T19:25:00.809Z,67.5
2023-04-23T19:30:00.695Z,45.6
2023-04-23T19:35:00.736Z,64.7
2023-04-23T19:40:00.821Z,67.5
2023-04-23T19:45:00.742Z,67.5
2023-04-23T19:50:00.752Z,46.2
2023-04-23T19:55:00.795Z,45.0
2023-04-23T20:00:00.750Z,45.0
2023-04-23T20:05:00.781Z,45.0
2023-04-23T20:10:00.759Z,38.9
2023-04-23T20:15:00.724Z,49.5
2023-04-23T20:20:00.792Z,61.2
2023-04-23T20:25:00.727Z,89.7
2023-04-23T20:30:00.766Z,90.0
2023-04-23T20:35:00.746Z,90.0
2023-04-23T20:40:00.796Z,71.1
2023-04-23T20:45:00.817Z,67.5
2023-04-23T20:50:00.737Z,67.5
2023-04-23T20:55:00.814Z,67.5
2023-04-23T21:00:00.835Z,67.5
2023-04-23T21:05:00.762Z,67.5
2023-04-23T21:10:00.799Z,111.3
2023-04-23T21:15:00.809Z,74.5
2023-04-23T21:20:00.818Z,67.6
2023-04-23T21:25:00.775Z,66.2
2023-04-23T21:30:00.900Z,50.0
2023-04-23T21:35:00.790Z,60.3
2023-04-23T21:40:00.743Z,67.8
2023-04-23T21:45:00.822Z,49.1
2023-04-23T21:50:00.714Z,67.2
2023-04-23T21:55:00.741Z,51.6
2023-04-23T22:00:00.710Z,67.5
2023-04-23T22:05:01.007Z,99.2
2023-04-23T22:10:00.794Z,67.9
2023-04-23T22:15:00.778Z,94.6
2023-04-23T22:20:00.742Z,90.0
2023-04-23T22:25:00.640Z,140.9
2023-04-23T22:30:00.760Z,95.5
2023-04-23T22:35:01.011Z,116.9
2023-04-23T22:40:00.743Z,134.1
2023-04-23T22:45:00.798Z,122.4
2023-04-23T22:50:00.713Z,123.6
2023-04-23T22:55:00.741Z,119.7
2023-04-23T23:00:00.765Z,85.7
2023-04-23T23:05:00.797Z,62.0
2023-04-23T23:10:00.807Z,98.9
2023-04-23T23:15:00.807Z,85.5
2023-04-23T23:20:00.743Z,88.3
2023-04-23T23:25:00.736Z,100.8
2023-04-23T23:30:00.739Z,94.7
2023-04-23T23:35:00.727Z,97.2
2023-04-23T23:40:00.809Z,104.5
2023-04-23T23:45:00.742Z,115.3
2023-04-23T23:50:00.749Z,107.8
2023-04-23T23:55:00.732Z,126.9
